Time;durP1;ratioP1;P1;durP2;ratioP2;P2;SDS_P1;SDS_P2;PMS_P1;PMS_P2;Temp;Humidity;BMP_temperature;BMP_pressure;BME280_temperature;BME280_humidity;BME280_pressure;Samples;Min_cycle;Max_cycle;Signal;HPM_P1;HPM_P2
2023/04/30 05:20:43;;;;;;;12.37;8.13;;;;;;;;;;5075165;28;21071;-84
2023/04/30 05:27:29;;;;;;;13.77;9.27;;;9.00;99.90;;;;;;5073747;28;20529;-84
2023/04/30 05:33:39;;;;;;;15.27;9.53;;;9.20;99.90;;;;;;5126661;27;20274;-85
2023/04/30 05:38:44;;;;;;;11.83;8.83;;;9.50;99.90;;;;;;5136680;27;20271;-84
2023/04/30 05:42:57;;;;;;;10.73;8.93;;;10.00;99.90;;;;;;5074192;28;20591;-84
2023/04/30 05:47:11;;;;;;;10.57;8.40;;;9.80;99.90;;;;;;5134743;27;20293;-85
2023/04/30 05:52:45;;;;;;;15.00;8.30;;;9.70;99.90;;;;;;5137629;27;20278;-84
2023/04/30 05:58:55;;;;;;;10.43;7.03;;;;;;;;;;5137455;27;20274;-84
2023/04/30 06:03:03;;;;;;;12.70;8.10;;;;;;;;;;5136351;27;20276;-84
2023/04/30 06:06:47;;;;;;;8.63;7.40;;;10.10;99.90;;;;;;5134642;27;20654;-82
2023/04/30 06:12:01;;;;;;;10.65;8.85;;;;;;;;;;5134277;27;20854;-82
2023/04/30 06:16:43;;;;;;;9.00;7.13;;;9.90;99.90;;;;;;5094039;27;20789;-82
2023/04/30 06:21:25;;;;;;;9.27;7.93;;;9.70;99.90;;;;;;5134319;27;20271;-83
2023/04/30 06:24:57;;;;;;;9.23;7.33;;;10.20;99.90;;;;;;5135010;27;20284;-80
2023/04/30 06:28:50;;;;;;;10.13;7.73;;;;;;;;;;5135471;27;20271;-84
2023/04/30 06:33:12;;;;;;;9.57;6.57;;;10.00;99.90;;;;;;5139521;27;20271;-82
2023/04/30 06:37:42;;;;;;;8.10;6.67;;;10.00;99.90;;;;;;5138782;27;20287;-84
2023/04/30 06:41:56;;;;;;;9.37;6.73;;;10.40;99.90;;;;;;5134994;27;20704;-84
2023/04/30 06:45:53;;;;;;;13.47;7.00;;;10.20;99.90;;;;;;5136707;27;20271;-82
2023/04/30 06:49:54;;;;;;;8.97;6.80;;;;;;;;;;5134519;27;20308;-81
2023/04/30 06:53:52;;;;;;;7.67;6.33;;;10.30;99.90;;;;;;5135815;27;20273;-83
2023/04/30 06:56:18;;;;;;;7.77;6.37;;;10.60;99.90;;;;;;5135304;28;20186;-84
2023/04/30 06:59:57;;;;;;;9.27;5.90;;;;;;;;;;5134819;27;20736;-84
2023/04/30 07:04:05;;;;;;;9.00;6.90;;;10.30;99.90;;;;;;5135266;27;20267;-82
2023/04/30 07:07:55;;;;;;;9.70;7.07;;;10.60;99.90;;;;;;5064469;28;20632;-81
2023/04/30 07:12:52;;;;;;;9.70;7.10;;;;;;;;;;5093963;28;20684;-81
2023/04/30 07:15:18;;;;;;;8.53;6.70;;;;;;;;;;5078070;28;20216;-80
2023/04/30 07:17:44;;;;;;;8.63;6.67;;;;;;;;;;5070876;28;20728;-82
2023/04/30 07:20:13;;;;;;;8.70;6.57;;;11.00;99.90;;;;;;5060023;28;20185;-79
2023/04/30 07:22:39;;;;;;;8.20;6.60;;;11.20;99.90;;;;;;5069179;28;20177;-80
2023/04/30 07:25:06;;;;;;;7.87;6.97;;;11.60;99.90;;;;;;5052498;28;20544;-82
2023/04/30 07:27:31;;;;;;;9.53;6.93;;;11.70;99.90;;;;;;5052620;28;20671;-81
2023/04/30 07:29:57;;;;;;;11.03;6.53;;;11.90;99.90;;;;;;5050919;28;20181;-82
2023/04/30 07:32:25;;;;;;;8.30;7.10;;;12.20;99.90;;;;;;5054744;28;20207;-82
2023/04/30 07:34:52;;;;;;;11.60;6.83;;;12.30;99.90;;;;;;5058911;28;20520;-83
2023/04/30 07:37:18;;;;;;;7.47;6.27;;;12.30;99.90;;;;;;5062927;28;20237;-83
2023/04/30 07:39:44;;;;;;;6.97;6.00;;;12.50;99.90;;;;;;5054959;28;20178;-83
2023/04/30 07:42:10;;;;;;;6.60;5.57;;;;;;;;;;5063260;28;20241;-84
2023/04/30 07:44:35;;;;;;;6.83;5.43;;;12.70;99.90;;;;;;5056280;28;20224;-86
2023/04/30 07:47:01;;;;;;;7.17;6.13;;;13.50;99.90;;;;;;5068938;28;20213;-84
2023/04/30 07:49:27;;;;;;;6.37;5.40;;;13.60;99.90;;;;;;5076927;28;20177;-86
2023/04/30 07:51:53;;;;;;;8.13;5.37;;;13.60;99.90;;;;;;5074113;28;20209;-86
2023/04/30 07:54:19;;;;;;;6.57;5.43;;;13.70;99.90;;;;;;5064234;28;20193;-83
2023/04/30 07:56:45;;;;;;;5.63;5.03;;;13.90;99.90;;;;;;5059919;28;20200;-85
2023/04/30 07:59:10;;;;;;;6.17;5.50;;;14.00;99.90;;;;;;5076061;28;20186;-86
2023/04/30 08:01:36;;;;;;;5.83;5.10;;;14.70;99.90;;;;;;5076193;28;20249;-86
2023/04/30 08:04:02;;;;;;;7.13;5.30;;;14.70;99.90;;;;;;5055307;28;20183;-84
2023/04/30 08:06:27;;;;;;;6.03;5.00;;;14.10;99.90;;;;;;5055148;28;20237;-84
2023/04/30 08:08:53;;;;;;;5.27;4.73;;;14.20;99.90;;;;;;5054562;28;20179;-83
2023/04/30 08:11:19;;;;;;;4.80;4.40;;;15.20;99.90;;;;;;5054120;28;20222;-83
2023/04/30 08:13:45;;;;;;;5.30;4.57;;;14.90;99.90;;;;;;5058048;28;20178;-83
2023/04/30 08:16:11;;;;;;;5.20;4.70;;;15.00;99.90;;;;;;5059319;28;20204;-84
2023/04/30 08:18:37;;;;;;;5.50;4.77;;;14.50;99.90;;;;;;5074830;28;20205;-85
2023/04/30 08:21:04;;;;;;;5.07;4.50;;;14.50;99.90;;;;;;5066875;28;20211;-86
2023/04/30 08:23:30;;;;;;;5.47;4.90;;;14.70;99.90;;;;;;5052633;28;20262;-85
2023/04/30 08:25:56;;;;;;;4.63;4.13;;;15.10;99.90;;;;;;5060646;28;20197;-86
2023/04/30 08:28:21;;;;;;;4.73;4.30;;;14.40;99.90;;;;;;5060508;28;20181;-87
2023/04/30 08:30:47;;;;;;;5.13;4.33;;;;;;;;;;5048730;28;20201;-85
2023/04/30 08:33:13;;;;;;;5.17;4.67;;;;;;;;;;5041124;28;20286;-85
2023/04/30 08:35:39;;;;;;;5.20;4.63;;;14.30;99.90;;;;;;5039582;28;20193;-83
2023/04/30 08:38:05;;;;;;;4.87;4.17;;;14.30;99.90;;;;;;5039410;28;20216;-87
2023/04/30 08:40:34;;;;;;;5.37;4.13;;;14.90;99.90;;;;;;5055420;28;20178;-86
2023/04/30 08:43:07;;;;;;;5.53;4.67;;;15.00;99.90;;;;;;5038377;28;20678;-86
2023/04/30 08:45:35;;;;;;;5.53;4.57;;;14.80;99.90;;;;;;5042058;28;20189;-87
2023/04/30 08:48:04;;;;;;;4.80;4.30;;;14.80;99.90;;;;;;5047679;28;20311;-85
2023/04/30 08:50:30;;;;;;;5.40;4.33;;;14.30;99.90;;;;;;5054986;28;20240;-86
2023/04/30 08:53:01;;;;;;;5.33;3.80;;;13.70;99.90;;;;;;5047223;28;20190;-82
2023/04/30 08:55:28;;;;;;;5.47;3.30;;;14.40;99.90;;;;;;5049991;28;20276;-82
2023/04/30 08:57:53;;;;;;;4.33;3.70;;;16.10;99.90;;;;;;5060967;28;20227;-83
2023/04/30 09:00:19;;;;;;;3.30;3.00;;;16.80;99.90;;;;;;5058423;28;20184;-83
2023/04/30 09:02:46;;;;;;;4.80;3.43;;;17.40;99.90;;;;;;5057934;28;20247;-82
2023/04/30 09:05:13;;;;;;;4.50;3.70;;;18.20;99.90;;;;;;5057463;28;20186;-82
2023/04/30 09:07:44;;;;;;;4.03;3.40;;;18.10;99.90;;;;;;5052581;28;20225;-83
2023/04/30 09:10:21;;;;;;;5.80;4.03;;;17.40;99.90;;;;;;5059158;28;20176;-82
2023/04/30 09:13:06;;;;;;;4.13;3.73;;;17.30;99.90;;;;;;5056841;28;20225;-82
2023/04/30 09:15:33;;;;;;;5.43;4.00;;;16.70;99.90;;;;;;5055581;28;20214;-81
2023/04/30 09:18:07;;;;;;;3.90;3.50;;;16.20;99.90;;;;;;5044960;28;20559;-83
2023/04/30 09:20:34;;;;;;;3.40;3.10;;;16.50;99.90;;;;;;5036211;28;20605;-83
2023/04/30 09:23:10;;;;;;;3.20;2.90;;;16.80;99.90;;;;;;5048050;28;20594;-82
2023/04/30 09:25:41;;;;;;;3.67;3.17;;;16.30;99.90;;;;;;5050502;28;20187;-81
2023/04/30 09:28:08;;;;;;;4.30;3.03;;;15.70;99.90;;;;;;5056143;28;20212;-81
2023/04/30 09:30:34;;;;;;;3.10;2.83;;;15.20;99.90;;;;;;5046328;28;20179;-81
2023/04/30 09:33:00;;;;;;;4.03;3.33;;;15.00;99.90;;;;;;5052832;28;20663;-84
2023/04/30 09:35:33;;;;;;;3.33;3.03;;;15.00;99.90;;;;;;5038011;28;20664;-84
2023/04/30 09:38:03;;;;;;;4.73;3.43;;;15.10;99.90;;;;;;5052886;28;20203;-82
2023/04/30 09:40:35;;;;;;;3.30;3.00;;;15.00;99.90;;;;;;5046672;28;20182;-84
2023/04/30 09:43:01;;;;;;;4.60;3.60;;;15.10;99.90;;;;;;5038632;28;20174;-83
2023/04/30 09:45:37;;;;;;;3.43;3.13;;;15.00;99.90;;;;;;5037408;28;20633;-84
2023/04/30 09:48:03;;;;;;;4.13;3.73;;;14.80;99.90;;;;;;5043389;28;20186;-82
2023/04/30 09:50:39;;;;;;;3.50;3.13;;;14.60;99.90;;;;;;5038421;28;20265;-82
2023/04/30 09:53:07;;;;;;;3.67;3.30;;;14.40;99.90;;;;;;5036853;28;20182;-83
2023/04/30 09:55:36;;;;;;;4.33;3.30;;;14.40;99.90;;;;;;5040839;28;20182;-81
2023/04/30 09:58:08;;;;;;;4.50;3.93;;;14.30;99.90;;;;;;5036625;28;20175;-81
2023/04/30 10:00:35;;;;;;;3.90;3.50;;;14.20;99.90;;;;;;5037670;28;20710;-81
2023/04/30 10:03:09;;;;;;;3.77;3.33;;;14.10;99.90;;;;;;5040289;28;20188;-82
2023/04/30 10:05:46;;;;;;;4.77;3.23;;;14.20;99.90;;;;;;5040235;28;20181;-81
2023/04/30 10:08:22;;;;;;;3.53;3.20;;;14.20;99.90;;;;;;5037413;28;20154;-82
2023/04/30 10:10:56;;;;;;;3.80;3.50;;;14.20;99.90;;;;;;5038476;28;20199;-79
2023/04/30 10:13:25;;;;;;;3.17;2.87;;;14.50;99.90;;;;;;5045172;28;20189;-82
2023/04/30 10:15:53;;;;;;;5.43;2.97;;;14.60;99.90;;;;;;5041766;28;20556;-82
2023/04/30 10:18:25;;;;;;;3.23;2.93;;;14.30;99.90;;;;;;5041792;28;20177;-82
2023/04/30 10:20:54;;;;;;;3.70;3.30;;;14.20;99.90;;;;;;5056384;28;20206;-84
2023/04/30 10:23:21;;;;;;;4.13;3.07;;;14.00;99.90;;;;;;5057055;28;20177;-82
2023/04/30 10:25:47;;;;;;;3.90;3.47;;;14.10;99.90;;;;;;5054632;28;20811;-82
2023/04/30 10:28:13;;;;;;;3.27;2.90;;;14.40;99.90;;;;;;5057269;28;20207;-82
2023/04/30 10:30:42;;;;;;;4.43;3.03;;;14.90;99.90;;;;;;5055252;28;20533;-85
2023/04/30 10:33:26;;;;;;;3.43;2.60;;;15.00;99.90;;;;;;5054241;28;20223;-83
2023/04/30 10:35:55;;;;;;;4.37;2.87;;;15.40;99.90;;;;;;5057062;28;20176;-84
2023/04/30 10:38:24;;;;;;;2.67;2.47;;;15.80;99.90;;;;;;5060735;28;20562;-84
2023/04/30 10:40:53;;;;;;;2.73;2.53;;;16.30;99.90;;;;;;5063607;28;20257;-83
2023/04/30 10:43:20;;;;;;;4.30;2.63;;;16.80;99.90;;;;;;5060912;28;20217;-81
2023/04/30 10:45:47;;;;;;;2.50;2.30;;;17.10;99.90;;;;;;5059599;28;20179;-84
2023/04/30 10:48:15;;;;;;;2.63;2.37;;;17.20;99.90;;;;;;5060970;28;20180;-82
2023/04/30 10:50:43;;;;;;;2.77;2.53;;;16.80;99.90;;;;;;5059402;28;20670;-83
2023/04/30 10:53:21;;;;;;;3.90;2.70;;;16.70;99.90;;;;;;5061760;28;20166;-83
2023/04/30 10:55:59;;;;;;;2.63;2.40;;;16.70;99.90;;;;;;5061151;28;20693;-83
2023/04/30 10:58:28;;;;;;;3.07;2.40;;;16.90;99.90;;;;;;5061252;28;20211;-82
2023/04/30 11:01:07;;;;;;;2.57;2.37;;;17.30;99.90;;;;;;5060464;28;20184;-83
2023/04/30 11:03:35;;;;;;;3.13;2.00;;;16.90;99.90;;;;;;5058656;28;20181;-83
2023/04/30 11:06:11;;;;;;;3.00;2.13;;;16.50;99.90;;;;;;5060538;28;20247;-83
2023/04/30 11:08:38;;;;;;;2.23;2.03;;;16.10;99.90;;;;;;5056092;28;20165;-83
2023/04/30 11:11:04;;;;;;;3.43;2.90;;;16.20;99.90;;;;;;5055311;28;20232;-83
2023/04/30 11:13:47;;;;;;;2.80;2.50;;;16.20;99.90;;;;;;5054800;28;20177;-84
2023/04/30 11:16:15;;;;;;;2.63;2.43;;;16.30;99.90;;;;;;5055682;28;20208;-83
2023/04/30 11:18:44;;;;;;;2.30;2.10;;;16.10;99.90;;;;;;5054162;28;20331;-81
2023/04/30 11:21:10;;;;;;;2.30;2.10;;;15.80;99.90;;;;;;5054205;28;20259;-81
2023/04/30 11:23:36;;;;;;;2.50;2.20;;;15.70;99.90;;;;;;5055319;28;20196;-82
2023/04/30 11:26:02;;;;;;;2.50;2.30;;;15.80;99.90;;;;;;5055952;28;20202;-82
2023/04/30 11:28:29;;;;;;;4.03;2.47;;;16.00;99.90;;;;;;5056045;28;20540;-81
2023/04/30 11:30:59;;;;;;;2.60;2.40;;;16.20;99.90;;;;;;5061700;28;20207;-83
2023/04/30 11:33:29;;;;;;;3.00;2.70;;;16.50;99.90;;;;;;5057270;28;20178;-83
2023/04/30 11:35:56;;;;;;;2.97;2.67;;;17.60;99.90;;;;;;5056741;28;20264;-83
2023/04/30 11:38:33;;;;;;;2.93;2.63;;;18.40;99.90;;;;;;5060544;28;20645;-83
2023/04/30 11:41:00;;;;;;;3.10;2.80;;;18.50;99.90;;;;;;5058618;28;20177;-81
2023/04/30 11:43:28;;;;;;;3.30;3.00;;;18.60;99.90;;;;;;5057324;28;20205;-81
2023/04/30 11:46:12;;;;;;;3.20;2.90;;;18.50;99.90;;;;;;5057945;28;20265;-83
2023/04/30 11:48:41;;;;;;;2.80;2.60;;;18.60;99.90;;;;;;5057557;28;20650;-83
2023/04/30 11:51:17;;;;;;;2.90;2.60;;;19.10;99.90;;;;;;5058846;28;20223;-84
2023/04/30 11:53:48;;;;;;;2.73;2.53;;;19.20;99.90;;;;;;5059265;28;20180;-83
2023/04/30 11:56:22;;;;;;;2.53;2.33;;;19.20;99.90;;;;;;5056674;28;20201;-82
2023/04/30 11:58:50;;;;;;;2.77;2.47;;;19.50;99.90;;;;;;5061937;28;20548;-84
2023/04/30 12:01:16;;;;;;;2.13;1.93;;;19.80;99.90;;;;;;5063331;28;20187;-83
2023/04/30 12:03:47;;;;;;;2.23;2.03;;;20.00;99.90;;;;;;5061682;28;20181;-82
2023/04/30 12:06:24;;;;;;;2.47;2.27;;;20.30;99.90;;;;;;5060374;28;20422;-83
2023/04/30 12:08:57;;;;;;;2.50;2.30;;;21.00;99.90;;;;;;5063237;28;20629;-84
2023/04/30 12:11:25;;;;;;;2.30;2.10;;;21.00;97.20;;;;;;5062378;28;20230;-85
2023/04/30 12:13:55;;;;;;;2.70;2.50;;;21.50;98.40;;;;;;5062275;28;20175;-81
2023/04/30 12:16:24;;;;;;;2.93;2.57;;;21.20;96.50;;;;;;5063806;28;20521;-82
2023/04/30 12:18:50;;;;;;;2.90;2.20;;;19.90;98.30;;;;;;5063573;28;20205;-82
2023/04/30 12:21:17;;;;;;;2.90;2.60;;;20.60;98.40;;;;;;5062380;28;20189;-81
2023/04/30 12:23:44;;;;;;;5.83;2.50;;;20.40;96.50;;;;;;5063253;28;20182;-83
2023/04/30 12:26:10;;;;;;;2.33;2.13;;;19.70;97.00;;;;;;5064821;28;20193;-81
2023/04/30 12:28:35;;;;;;;2.50;2.30;;;19.00;98.40;;;;;;5064094;28;20240;-82
2023/04/30 12:31:03;;;;;;;2.47;2.27;;;19.10;98.60;;;;;;5065151;28;20225;-84
2023/04/30 12:33:30;;;;;;;2.40;2.20;;;18.10;97.90;;;;;;5064048;28;20173;-83
2023/04/30 12:35:59;;;;;;;2.23;2.00;;;17.80;99.20;;;;;;5064181;28;20173;-83
2023/04/30 12:38:25;;;;;;;2.63;2.07;;;19.10;99.30;;;;;;5061798;28;20260;-84
2023/04/30 12:40:50;;;;;;;2.23;2.03;;;20.70;98.60;;;;;;5061003;28;20201;-84
2023/04/30 12:43:17;;;;;;;2.40;2.20;;;20.50;96.00;;;;;;5057374;28;20614;-84
2023/04/30 12:45:54;;;;;;;2.20;2.00;;;19.80;97.70;;;;;;5047900;28;20200;-84
2023/04/30 12:48:23;;;;;;;2.67;2.27;;;18.70;97.70;;;;;;5040376;28;20182;-81
2023/04/30 12:50:57;;;;;;;3.13;2.83;;;19.10;98.50;;;;;;5040793;28;20259;-80
2023/04/30 12:53:23;;;;;;;2.27;2.07;;;18.40;99.70;;;;;;5050705;28;20185;-82
2023/04/30 12:56:14;;;;;;;2.23;2.03;;;18.00;99.90;;;;;;5057452;28;20193;-81
2023/04/30 12:58:40;;;;;;;2.50;2.30;;;18.30;98.90;;;;;;5060457;28;20538;-83
2023/04/30 13:01:11;;;;;;;2.40;2.20;;;17.90;99.90;;;;;;5049409;28;20188;-82
2023/04/30 13:03:37;;;;;;;3.30;3.00;;;17.40;99.90;;;;;;5065043;28;20185;-83
2023/04/30 13:06:03;;;;;;;2.63;2.43;;;17.70;99.90;;;;;;5064549;28;20204;-83
2023/04/30 13:08:29;;;;;;;2.83;2.63;;;19.00;99.20;;;;;;5063419;28;20174;-80
2023/04/30 13:10:55;;;;;;;2.67;2.47;;;19.90;97.10;;;;;;5061178;28;20614;-82
2023/04/30 13:13:20;;;;;;;2.70;2.50;;;19.90;96.60;;;;;;5061497;28;20631;-83
2023/04/30 13:15:47;;;;;;;2.63;2.43;;;18.90;98.80;;;;;;5061847;28;20234;-84
2023/04/30 13:18:14;;;;;;;3.00;2.77;;;18.90;99.00;;;;;;5063359;28;20173;-84
2023/04/30 13:20:40;;;;;;;3.33;3.00;;;19.60;98.80;;;;;;5060501;28;20177;-83
2023/04/30 13:23:06;;;;;;;3.20;2.40;;;20.70;96.80;;;;;;5060732;28;20174;-82
2023/04/30 13:25:33;;;;;;;2.23;2.03;;;21.00;96.50;;;;;;5040306;28;20193;-83
2023/04/30 13:27:59;;;;;;;9.67;4.63;;;21.60;94.30;;;;;;5036760;28;20198;-78
2023/04/30 13:30:25;;;;;;;4.00;3.30;;;22.00;93.80;;;;;;5034473;28;20175;-79
2023/04/30 13:32:51;;;;;;;3.33;2.87;;;21.90;92.80;;;;;;5035235;28;20239;-80
2023/04/30 13:35:19;;;;;;;2.60;2.40;;;21.40;92.80;;;;;;5035499;28;20171;-80
2023/04/30 13:37:47;;;;;;;3.27;2.10;;;19.90;93.00;;;;;;5037040;28;20656;-79
2023/04/30 13:40:14;;;;;;;2.53;2.30;;;19.30;95.60;;;;;;5038856;28;20180;-85
2023/04/30 13:42:41;;;;;;;5.53;2.57;;;19.80;95.70;;;;;;5036866;28;20265;-84
2023/04/30 13:45:08;;;;;;;3.90;2.13;;;19.60;95.00;;;;;;5037569;28;20182;-82
2023/04/30 13:47:34;;;;;;;3.13;2.20;;;18.90;96.00;;;;;;5038056;28;20312;-83
2023/04/30 13:50:00;;;;;;;2.70;2.50;;;18.90;97.90;;;;;;5036442;28;20237;-83
2023/04/30 13:52:26;;;;;;;2.53;2.33;;;20.00;96.00;;;;;;5036766;28;20226;-82
2023/04/30 13:54:52;;;;;;;3.43;2.30;;;20.50;95.20;;;;;;5035434;28;20183;-83
2023/04/30 13:57:17;;;;;;;2.50;2.30;;;19.40;94.90;;;;;;5035672;28;20194;-83
2023/04/30 13:59:43;;;;;;;2.80;2.40;;;18.30;95.90;;;;;;5037674;28;20237;-82
2023/04/30 14:02:09;;;;;;;2.83;2.53;;;18.20;98.60;;;;;;5036009;28;20546;-84
2023/04/30 14:04:36;;;;;;;2.70;2.50;;;19.60;97.10;;;;;;5035512;28;20186;-83
2023/04/30 14:07:03;;;;;;;2.57;2.37;;;20.40;94.40;;;;;;5036351;28;20197;-83
2023/04/30 14:09:29;;;;;;;3.00;2.53;;;20.30;93.30;;;;;;5034742;28;20178;-81
2023/04/30 14:11:57;;;;;;;2.60;2.40;;;20.40;93.70;;;;;;5034823;28;20694;-83
2023/04/30 14:14:26;;;;;;;2.37;2.17;;;20.30;93.80;;;;;;5036804;28;20175;-83
2023/04/30 14:16:52;;;;;;;3.83;2.50;;;20.60;94.30;;;;;;5035347;28;20248;-84
2023/04/30 14:19:19;;;;;;;2.63;2.27;;;20.20;93.90;;;;;;5035659;28;20171;-80
2023/04/30 14:21:45;;;;;;;2.70;2.50;;;20.00;93.10;;;;;;5042095;28;20212;-82
2023/04/30 14:24:11;;;;;;;2.20;2.00;;;19.30;94.20;;;;;;5035098;28;20178;-83
2023/04/30 14:26:39;;;;;;;2.47;2.27;;;19.20;95.40;;;;;;5045275;28;20193;-82
2023/04/30 14:29:05;;;;;;;2.30;2.10;;;19.20;94.30;;;;;;5055955;28;20174;-84
2023/04/30 14:31:31;;;;;;;2.90;2.50;;;18.20;95.60;;;;;;5055574;28;20208;-84
2023/04/30 14:33:56;;;;;;;4.80;2.60;;;17.60;97.60;;;;;;5054707;28;20260;-83
2023/04/30 14:36:22;;;;;;;2.80;2.50;;;18.30;96.80;;;;;;5054085;28;20204;-85
2023/04/30 14:38:48;;;;;;;2.60;2.40;;;18.80;96.80;;;;;;5053914;28;20237;-83
2023/04/30 14:41:13;;;;;;;2.60;2.40;;;19.20;95.40;;;;;;5053825;28;20181;-85
2023/04/30 14:43:40;;;;;;;3.43;2.63;;;19.40;94.30;;;;;;5053698;28;20178;-83
2023/04/30 14:46:06;;;;;;;2.77;2.57;;;18.90;95.60;;;;;;5054998;28;20193;-83
2023/04/30 14:48:32;;;;;;;2.53;2.27;;;18.70;95.40;;;;;;5053896;28;20184;-84
2023/04/30 14:50:58;;;;;;;3.00;2.73;;;18.80;95.70;;;;;;5054921;28;20188;-82
2023/04/30 14:53:23;;;;;;;3.57;2.60;;;18.80;94.90;;;;;;5056018;28;20184;-83
2023/04/30 14:55:49;;;;;;;10.37;3.27;;;18.80;95.70;;;;;;5054024;28;20177;-83
2023/04/30 14:58:15;;;;;;;2.63;2.43;;;18.90;95.40;;;;;;5055088;28;20169;-83
2023/04/30 15:00:41;;;;;;;2.93;2.63;;;18.90;95.00;;;;;;5053204;28;20586;-81
2023/04/30 15:03:06;;;;;;;2.60;2.40;;;18.60;95.40;;;;;;5054637;28;20513;-82
2023/04/30 15:05:32;;;;;;;4.13;2.93;;;18.60;96.10;;;;;;5055137;28;20166;-82
2023/04/30 15:07:58;;;;;;;2.70;2.50;;;18.70;95.70;;;;;;5053550;28;20200;-83
2023/04/30 15:10:24;;;;;;;2.70;2.43;;;18.80;95.60;;;;;;5054831;28;20648;-83
2023/04/30 15:12:50;;;;;;;3.17;2.80;;;18.60;95.00;;;;;;5053400;28;20667;-82
2023/04/30 15:15:17;;;;;;;3.20;2.90;;;18.40;95.10;;;;;;5053295;28;20172;-81
2023/04/30 15:17:43;;;;;;;2.60;2.40;;;18.70;95.90;;;;;;5053933;28;20220;-82
2023/04/30 15:20:09;;;;;;;2.90;2.67;;;18.70;95.20;;;;;;5052986;28;20206;-83
2023/04/30 15:22:36;;;;;;;2.70;2.50;;;18.10;95.60;;;;;;5054515;28;20308;-82
2023/04/30 15:25:02;;;;;;;3.90;2.80;;;17.30;96.60;;;;;;5037378;28;20188;-81
2023/04/30 15:27:28;;;;;;;2.93;2.63;;;16.50;97.20;;;;;;5053541;28;20201;-82
2023/04/30 15:29:54;;;;;;;3.53;2.83;;;16.40;98.40;;;;;;5057431;28;20255;-80
2023/04/30 15:32:20;;;;;;;3.53;2.90;;;16.20;99.10;;;;;;5057436;28;20207;-86
2023/04/30 15:34:46;;;;;;;2.93;2.63;;;16.00;99.60;;;;;;5062171;28;20253;-84
2023/04/30 15:37:11;;;;;;;4.40;2.63;;;16.10;99.90;;;;;;5061325;28;20645;-83
2023/04/30 15:39:37;;;;;;;3.37;3.03;;;16.20;99.90;;;;;;5057562;28;20204;-81
2023/04/30 15:42:03;;;;;;;3.53;2.73;;;16.10;99.90;;;;;;5058516;28;20540;-81
2023/04/30 15:44:28;;;;;;;2.37;2.17;;;15.80;99.90;;;;;;5056140;28;20653;-82
2023/04/30 15:46:55;;;;;;;2.50;2.30;;;15.60;99.90;;;;;;5060102;28;20281;-82
2023/04/30 15:49:22;;;;;;;3.30;2.80;;;15.40;99.90;;;;;;5061558;28;20183;-84
2023/04/30 15:51:49;;;;;;;3.37;2.80;;;15.20;99.90;;;;;;5058633;28;20221;-85
2023/04/30 15:54:15;;;;;;;3.93;3.33;;;15.00;99.90;;;;;;5058440;28;20600;-82
2023/04/30 15:56:41;;;;;;;2.93;2.70;;;14.90;99.90;;;;;;5044179;28;20225;-84
2023/04/30 15:59:07;;;;;;;4.37;2.50;;;14.80;99.90;;;;;;5037950;28;20179;-86
2023/04/30 16:01:33;;;;;;;4.03;3.13;;;14.80;99.90;;;;;;5038567;28;20244;-86
2023/04/30 16:03:59;;;;;;;3.53;2.57;;;14.70;99.90;;;;;;5039444;28;20174;-82
2023/04/30 16:06:26;;;;;;;2.97;2.70;;;14.80;99.90;;;;;;5051586;28;20248;-85
2023/04/30 16:08:52;;;;;;;2.60;2.40;;;14.90;99.90;;;;;;5059762;28;20181;-85
2023/04/30 16:11:22;;;;;;;4.20;2.73;;;14.80;99.90;;;;;;5058414;28;20263;-86
2023/04/30 16:13:50;;;;;;;3.33;2.70;;;14.80;99.90;;;;;;5057576;28;20181;-86
2023/04/30 16:16:16;;;;;;;2.87;2.57;;;14.80;99.90;;;;;;5047382;28;20209;-86
2023/04/30 16:18:42;;;;;;;3.17;2.47;;;14.80;99.90;;;;;;5037750;28;20166;-85
2023/04/30 16:21:08;;;;;;;2.53;2.20;;;14.80;99.90;;;;;;5036637;28;20213;-85
2023/04/30 16:23:35;;;;;;;3.20;2.77;;;14.60;99.90;;;;;;5038482;28;20189;-85
2023/04/30 16:26:00;;;;;;;3.20;2.77;;;14.60;99.90;;;;;;5038917;28;20202;-87
2023/04/30 16:28:30;;;;;;;3.30;3.00;;;14.50;99.90;;;;;;5036328;28;20558;-89
2023/04/30 16:30:56;;;;;;;2.90;2.60;;;14.40;99.90;;;;;;5036670;28;20190;-85
2023/04/30 16:33:23;;;;;;;4.63;2.70;;;14.40;99.90;;;;;;5041075;28;20178;-85
2023/04/30 16:35:49;;;;;;;3.00;2.60;;;14.20;99.90;;;;;;5039751;28;20163;-85
2023/04/30 16:38:15;;;;;;;2.57;2.37;;;14.20;99.90;;;;;;5038266;28;20265;-84
2023/04/30 16:40:41;;;;;;;3.50;3.20;;;14.10;99.90;;;;;;5037554;28;20178;-85
2023/04/30 16:43:06;;;;;;;3.80;2.90;;;14.10;99.90;;;;;;5038154;28;20545;-84
2023/04/30 16:45:33;;;;;;;4.23;2.77;;;14.00;99.90;;;;;;5036610;28;20310;-84
2023/04/30 16:47:58;;;;;;;2.80;2.50;;;13.90;99.90;;;;;;5039311;28;20202;-85
2023/04/30 16:50:25;;;;;;;3.77;3.10;;;13.90;99.90;;;;;;5036404;28;20651;-86
2023/04/30 16:52:52;;;;;;;5.20;3.47;;;13.80;99.90;;;;;;5039989;28;20285;-85
2023/04/30 16:55:18;;;;;;;5.50;3.00;;;13.90;99.90;;;;;;5037641;28;20202;-79
2023/04/30 16:57:45;;;;;;;3.13;2.63;;;13.80;99.90;;;;;;5039253;28;20604;-86
2023/04/30 17:00:12;;;;;;;4.07;3.20;;;13.90;99.90;;;;;;5053012;28;20167;-87
2023/04/30 17:02:39;;;;;;;4.47;2.90;;;13.90;99.90;;;;;;5055960;28;20197;-84
2023/04/30 17:05:06;;;;;;;6.37;4.43;;;13.80;99.90;;;;;;5064653;28;20191;-83
2023/04/30 17:19:20;;;;;;;6.40;3.40;;;13.60;99.90;;;;;;5076327;28;20558;-85
2023/04/30 17:28:12;;;;;;;5.43;4.17;;;13.30;99.90;;;;;;5124964;27;20277;-84
2023/04/30 17:39:17;;;;;;;4.50;2.97;;;13.20;99.90;;;;;;5127887;27;20372;-84
